Murry, Missouri
Current Conditions -  °F | °C
As of 10:12 PM on Wednesday 26 Nov 2014 (Local Time) from KCOU Reporting Station
Overcast Overcast  
Wind Chill: 23°   Ceiling: 1000
Heat Index: 33°   Visibility: 8mi
Dew Point: 30°   Wind: 15mph
Humidity: 89%   Direction: 310°NW
Pressure: 30.22"   Gusts: 24mph
Location:  39.0235°N, 92.2896°W
Report Text: KCOU 270412Z AUTO 31013G21KT 8SM OVC010 01/M01 A3022 RMK AO2 T00061011
Loading
Personal Weather Stations






























Interactive Weather Map New forecast layout! Learn more

10-Day Weather Forecast

Advertisements
Track Severe Weather on mobile